Time;durP1;ratioP1;P1;durP2;ratioP2;P2;SDS_P1;SDS_P2;PMS_P1;PMS_P2;Temp;Humidity;BMP_temperature;BMP_pressure;BME280_temperature;BME280_humidity;BME280_pressure;Samples;Min_cycle;Max_cycle;Signal;HPM_P1;HPM_P2
2023/12/17 00:00:29;;;;;;;9.57;5.30;;;3.50;99.90;;;;;;5047573;28;20708;-58
2023/12/17 00:02:57;;;;;;;13.55;5.53;;;3.50;99.90;;;;;;5047543;28;20293;-58
2023/12/17 00:05:44;;;;;;;13.95;5.82;;;3.40;99.90;;;;;;5045996;28;20210;-58
2023/12/17 00:08:13;;;;;;;13.65;7.22;;;3.40;99.90;;;;;;5044992;28;20221;-57
2023/12/17 00:10:41;;;;;;;17.67;6.68;;;3.30;99.90;;;;;;5047567;28;20205;-58
2023/12/17 00:13:09;;;;;;;10.48;6.90;;;3.20;99.90;;;;;;5047503;28;20292;-58
2023/12/17 00:15:38;;;;;;;17.50;8.07;;;3.20;99.90;;;;;;5045501;28;20310;-58
2023/12/17 00:18:06;;;;;;;16.90;8.23;;;3.20;99.90;;;;;;5049765;28;20198;-58
2023/12/17 00:20:35;;;;;;;17.83;9.75;;;3.20;99.90;;;;;;5049240;28;20210;-58
2023/12/17 00:23:04;;;;;;;18.85;10.25;;;3.20;99.90;;;;;;5050443;28;20297;-58
2023/12/17 00:25:32;;;;;;;16.25;9.95;;;3.10;99.90;;;;;;5050779;28;20267;-57
2023/12/17 00:28:00;;;;;;;20.40;10.07;;;3.10;99.90;;;;;;5050942;28;20236;-58
2023/12/17 00:30:28;;;;;;;19.42;9.93;;;3.10;99.90;;;;;;5051017;28;20649;-58
2023/12/17 00:32:57;;;;;;;16.33;8.63;;;3.10;99.90;;;;;;5043996;28;20206;-58
2023/12/17 00:35:25;;;;;;;15.70;6.95;;;3.10;99.90;;;;;;5047340;28;20596;-58
2023/12/17 00:37:53;;;;;;;15.20;8.13;;;3.10;99.90;;;;;;5054217;28;20206;-57
2023/12/17 00:40:21;;;;;;;14.45;7.60;;;3.10;99.90;;;;;;5055022;28;20610;-58
2023/12/17 00:42:48;;;;;;;13.52;7.18;;;3.10;99.90;;;;;;5055224;28;20615;-57
2023/12/17 00:45:17;;;;;;;16.38;7.25;;;3.00;99.90;;;;;;5055091;28;20279;-58
2023/12/17 00:47:44;;;;;;;14.77;7.22;;;3.10;99.90;;;;;;5054849;28;20296;-58
2023/12/17 00:50:14;;;;;;;18.90;8.57;;;3.10;99.90;;;;;;5054897;28;20226;-58
2023/12/17 00:52:42;;;;;;;11.25;8.20;;;3.00;99.90;;;;;;5054599;28;20663;-58
2023/12/17 00:55:10;;;;;;;18.50;8.90;;;3.00;99.90;;;;;;5054984;28;20475;-58
2023/12/17 00:57:38;;;;;;;21.50;9.88;;;3.00;99.90;;;;;;5054871;28;20205;-58
2023/12/17 01:00:08;;;;;;;21.00;10.07;;;3.00;99.90;;;;;;5054985;28;20206;-56
2023/12/17 01:02:36;;;;;;;16.05;10.80;;;3.00;99.90;;;;;;5054473;28;20206;-58
2023/12/17 01:05:04;;;;;;;22.75;10.23;;;3.00;99.90;;;;;;5053922;28;20241;-58
2023/12/17 01:07:34;;;;;;;19.00;9.77;;;3.10;99.90;;;;;;5054311;28;20202;-58
2023/12/17 01:10:02;;;;;;;18.55;10.07;;;3.10;99.90;;;;;;5054672;28;20279;-58
2023/12/17 01:12:30;;;;;;;18.25;9.35;;;3.10;99.90;;;;;;5054733;28;20206;-58
2023/12/17 01:14:58;;;;;;;15.13;9.48;;;3.10;99.90;;;;;;5054370;28;20582;-58
2023/12/17 01:17:25;;;;;;;17.38;9.18;;;3.20;99.90;;;;;;5054338;28;20202;-58
2023/12/17 01:19:53;;;;;;;21.48;9.13;;;3.20;99.90;;;;;;5054686;28;20206;-58
2023/12/17 01:22:21;;;;;;;18.50;9.85;;;3.20;99.90;;;;;;5054291;28;20272;-58
2023/12/17 01:24:54;;;;;;;20.45;8.93;;;3.20;99.90;;;;;;5054377;28;20234;-58
2023/12/17 01:27:22;;;;;;;16.48;8.40;;;3.20;99.90;;;;;;5054309;28;20260;-58
2023/12/17 01:29:50;;;;;;;14.45;8.30;;;3.20;99.90;;;;;;5054343;28;20229;-58
2023/12/17 01:32:18;;;;;;;15.52;8.95;;;3.20;99.90;;;;;;5054448;28;20202;-58
2023/12/17 01:34:46;;;;;;;13.40;8.48;;;3.20;99.90;;;;;;5054049;28;20265;-54
2023/12/17 01:37:14;;;;;;;22.92;9.18;;;3.30;99.90;;;;;;5053980;28;20208;-54
2023/12/17 01:39:41;;;;;;;23.17;9.05;;;3.30;99.90;;;;;;5053293;28;20264;-55
2023/12/17 01:42:11;;;;;;;14.50;9.15;;;3.30;99.90;;;;;;5054025;28;20590;-56
2023/12/17 01:44:38;;;;;;;23.05;9.48;;;3.30;99.90;;;;;;5053941;28;20280;-53
2023/12/17 01:47:06;;;;;;;20.15;9.90;;;3.40;99.90;;;;;;5053794;28;20202;-53
2023/12/17 01:49:34;;;;;;;17.85;9.73;;;3.50;99.90;;;;;;5054160;28;20318;-55
2023/12/17 01:52:02;;;;;;;17.67;8.90;;;3.50;99.90;;;;;;5053752;28;20300;-55
2023/12/17 01:54:30;;;;;;;17.35;8.95;;;3.50;99.90;;;;;;5053544;28;20283;-53
2023/12/17 01:56:58;;;;;;;29.65;9.35;;;3.60;99.90;;;;;;5053491;28;20725;-56
2023/12/17 01:59:27;;;;;;;22.15;10.35;;;3.60;99.90;;;;;;5054189;28;20216;-55
2023/12/17 02:01:54;;;;;;;20.83;11.20;;;3.70;99.90;;;;;;5053909;28;20244;-53
2023/12/17 02:04:22;;;;;;;23.42;10.73;;;3.70;99.90;;;;;;5053632;28;20287;-55
2023/12/17 02:06:50;;;;;;;17.40;10.13;;;3.70;99.90;;;;;;5053611;28;20234;-54
2023/12/17 02:09:18;;;;;;;19.08;10.48;;;3.70;99.90;;;;;;5053464;28;20220;-55
2023/12/17 02:11:46;;;;;;;20.67;10.43;;;3.70;99.90;;;;;;5053416;28;20293;-57
2023/12/17 02:14:14;;;;;;;22.95;10.57;;;3.80;99.90;;;;;;5053578;28;20256;-55
2023/12/17 02:16:43;;;;;;;18.42;10.50;;;3.80;99.90;;;;;;5053415;28;20216;-56
2023/12/17 02:19:11;;;;;;;23.08;10.93;;;3.80;99.90;;;;;;5053580;28;20313;-54
2023/12/17 02:21:39;;;;;;;25.08;11.57;;;3.90;99.90;;;;;;5053230;28;20205;-53
2023/12/17 02:24:09;;;;;;;17.23;11.13;;;3.90;99.90;;;;;;5080613;22;20664;-71
2023/12/17 02:26:37;;;;;;;16.95;10.15;;;3.90;99.90;;;;;;5085323;22;20290;-60
2023/12/17 02:29:05;;;;;;;17.50;10.60;;;3.90;99.90;;;;;;5073798;28;20228;-60
2023/12/17 02:31:33;;;;;;;15.98;9.68;;;3.90;99.90;;;;;;5073349;28;20292;-60
2023/12/17 02:34:00;;;;;;;25.20;10.18;;;3.90;99.90;;;;;;5073247;28;20290;-59
2023/12/17 02:36:28;;;;;;;19.58;10.90;;;3.90;99.90;;;;;;5057075;28;20206;-60
2023/12/17 02:38:56;;;;;;;23.85;11.13;;;3.90;99.90;;;;;;5052220;28;20736;-59
2023/12/17 02:41:26;;;;;;;20.05;10.45;;;4.00;99.90;;;;;;5053251;28;20213;-60
2023/12/17 02:43:53;;;;;;;19.75;10.43;;;4.00;99.90;;;;;;5053127;28;20303;-60
2023/12/17 02:46:21;;;;;;;24.52;10.65;;;4.00;99.90;;;;;;5053094;28;20233;-60
2023/12/17 02:48:49;;;;;;;25.20;11.35;;;4.00;99.90;;;;;;5047783;28;20233;-60
2023/12/17 02:51:17;;;;;;;21.90;11.63;;;4.00;99.90;;;;;;5052994;28;20365;-60
2023/12/17 02:53:45;;;;;;;30.75;12.00;;;4.00;99.90;;;;;;5052429;28;20230;-60
2023/12/17 02:56:13;;;;;;;24.70;10.85;;;4.00;99.90;;;;;;5052989;28;20248;-60
2023/12/17 02:58:42;;;;;;;25.63;12.13;;;4.00;99.90;;;;;;5052366;28;20283;-59
2023/12/17 03:01:10;;;;;;;23.38;11.68;;;4.00;99.90;;;;;;5052644;28;20232;-60
2023/12/17 03:03:38;;;;;;;23.83;11.63;;;4.00;99.90;;;;;;5053105;28;20234;-60
2023/12/17 03:06:06;;;;;;;23.73;11.65;;;4.00;99.90;;;;;;5052610;28;20259;-60
2023/12/17 03:08:34;;;;;;;21.40;11.05;;;4.00;99.90;;;;;;5048139;28;20339;-60
2023/12/17 03:11:02;;;;;;;24.05;12.32;;;4.10;99.90;;;;;;5052709;28;20221;-59
2023/12/17 03:13:31;;;;;;;25.50;12.50;;;4.10;99.90;;;;;;5051066;28;20233;-60
2023/12/17 03:16:00;;;;;;;25.02;12.27;;;4.00;99.90;;;;;;5052601;28;20210;-60
2023/12/17 03:18:28;;;;;;;20.27;11.50;;;4.00;99.90;;;;;;5052595;28;20214;-60
2023/12/17 03:20:56;;;;;;;21.55;12.50;;;4.10;99.90;;;;;;5052801;28;20206;-60
2023/12/17 03:23:24;;;;;;;27.40;11.82;;;4.10;99.90;;;;;;5050276;28;20214;-60
2023/12/17 03:25:51;;;;;;;22.23;11.60;;;4.10;99.90;;;;;;5047520;28;20241;-58
2023/12/17 03:28:19;;;;;;;26.83;12.15;;;4.00;99.90;;;;;;5052059;28;20276;-60
2023/12/17 03:30:47;;;;;;;22.00;10.63;;;4.00;99.90;;;;;;5052159;28;20714;-60
2023/12/17 03:33:16;;;;;;;22.98;11.73;;;4.00;99.90;;;;;;5052072;28;20210;-60
2023/12/17 03:35:44;;;;;;;27.50;12.10;;;4.00;99.90;;;;;;5051477;28;20214;-60
2023/12/17 03:38:12;;;;;;;22.23;11.48;;;4.00;99.90;;;;;;5051132;28;20210;-60
2023/12/17 03:40:40;;;;;;;22.23;11.82;;;4.00;99.90;;;;;;5051648;28;20283;-60
2023/12/17 03:43:08;;;;;;;23.30;12.45;;;4.00;99.90;;;;;;5052035;28;20205;-60
2023/12/17 03:45:36;;;;;;;26.17;12.38;;;4.10;99.90;;;;;;5052136;28;20311;-59
2023/12/17 03:48:05;;;;;;;19.95;11.45;;;4.10;99.90;;;;;;5051378;28;20209;-59
2023/12/17 03:50:34;;;;;;;22.98;11.68;;;4.10;99.90;;;;;;5052065;28;20225;-60
2023/12/17 03:53:02;;;;;;;22.75;11.52;;;4.10;99.90;;;;;;5051421;28;20230;-59
2023/12/17 03:55:30;;;;;;;22.80;11.75;;;4.10;99.90;;;;;;5051447;28;20255;-60
2023/12/17 03:57:58;;;;;;;20.02;11.77;;;4.10;99.90;;;;;;5051759;28;20205;-60
2023/12/17 04:00:26;;;;;;;25.50;12.68;;;4.20;99.90;;;;;;5052271;28;20244;-60
2023/12/17 04:02:54;;;;;;;20.77;11.27;;;4.20;99.90;;;;;;5051588;28;20328;-61
2023/12/17 04:05:24;;;;;;;24.80;11.80;;;4.20;99.90;;;;;;5062441;28;20819;-60
2023/12/17 04:07:54;;;;;;;23.33;11.40;;;4.30;99.90;;;;;;5047794;28;20289;-59
2023/12/17 04:10:22;;;;;;;24.65;11.90;;;4.30;99.90;;;;;;5046803;28;20303;-60
2023/12/17 04:12:49;;;;;;;18.90;11.15;;;4.30;99.90;;;;;;5051805;28;20300;-61
2023/12/17 04:15:17;;;;;;;20.27;12.20;;;4.40;99.90;;;;;;5050403;28;20253;-60
2023/12/17 04:17:46;;;;;;;24.48;11.90;;;4.40;99.90;;;;;;5048168;28;20201;-60
2023/12/17 04:20:14;;;;;;;28.48;12.35;;;4.40;99.90;;;;;;5050099;28;20252;-60
2023/12/17 04:22:42;;;;;;;24.52;11.80;;;4.40;99.90;;;;;;5051196;28;20260;-60
2023/12/17 04:25:11;;;;;;;20.45;11.30;;;4.30;99.90;;;;;;5050369;28;20283;-60
2023/12/17 04:27:40;;;;;;;26.42;11.57;;;4.30;99.90;;;;;;5051324;28;20263;-60
2023/12/17 04:30:09;;;;;;;19.95;11.40;;;4.40;99.90;;;;;;5051352;28;20705;-60
2023/12/17 04:32:38;;;;;;;22.08;10.95;;;4.40;99.90;;;;;;5051213;28;20267;-60
2023/12/17 04:35:07;;;;;;;22.13;11.00;;;4.40;99.90;;;;;;5048645;28;20226;-60
2023/12/17 04:37:35;;;;;;;24.02;11.13;;;4.40;99.90;;;;;;5051178;28;20256;-61
2023/12/17 04:40:03;;;;;;;21.98;11.43;;;4.40;99.90;;;;;;5050140;28;20206;-60
2023/12/17 04:42:33;;;;;;;23.58;10.90;;;4.40;99.90;;;;;;5051595;28;20205;-59
2023/12/17 04:45:03;;;;;;;20.20;11.52;;;4.40;99.90;;;;;;5051192;28;20229;-60
2023/12/17 04:47:31;;;;;;;17.83;11.15;;;4.40;99.90;;;;;;5051052;28;20217;-61
2023/12/17 04:49:59;;;;;;;20.63;11.27;;;4.50;99.90;;;;;;5051345;28;20209;-60
2023/12/17 04:52:27;;;;;;;21.38;11.57;;;4.50;99.90;;;;;;5051276;28;20260;-60
2023/12/17 04:54:54;;;;;;;18.52;11.05;;;4.50;99.90;;;;;;5048375;28;20222;-60
2023/12/17 04:57:22;;;;;;;24.75;11.85;;;4.50;99.90;;;;;;5050826;28;20202;-60
2023/12/17 04:59:51;;;;;;;21.10;11.07;;;4.50;99.90;;;;;;5051492;28;20617;-60
2023/12/17 05:02:19;;;;;;;19.85;12.02;;;4.50;99.90;;;;;;5044517;28;20202;-61
2023/12/17 05:04:47;;;;;;;23.13;11.88;;;4.40;99.90;;;;;;5051121;28;20267;-60
2023/12/17 05:07:16;;;;;;;25.00;11.20;;;4.40;99.90;;;;;;5050783;28;20210;-60
2023/12/17 05:09:44;;;;;;;24.88;13.48;;;4.30;99.90;;;;;;5050402;28;20275;-60
2023/12/17 05:12:12;;;;;;;26.17;12.38;;;4.30;99.90;;;;;;5048383;28;20695;-60
2023/12/17 05:14:41;;;;;;;20.02;11.73;;;4.30;99.90;;;;;;5051225;28;20225;-59
2023/12/17 05:17:10;;;;;;;27.63;12.13;;;4.30;99.90;;;;;;5050604;28;20252;-60
2023/12/17 05:19:38;;;;;;;28.63;11.82;;;4.30;99.90;;;;;;5050183;28;20292;-61
2023/12/17 05:22:06;;;;;;;22.35;13.07;;;4.30;99.90;;;;;;5052396;28;20289;-60
2023/12/17 05:24:34;;;;;;;22.58;12.75;;;4.30;99.90;;;;;;5054464;28;20226;-60
2023/12/17 05:27:02;;;;;;;20.45;12.82;;;4.30;99.90;;;;;;5052797;28;20728;-61
2023/12/17 05:29:30;;;;;;;28.10;12.52;;;4.20;99.90;;;;;;5051132;28;20600;-58
2023/12/17 05:31:57;;;;;;;23.98;13.85;;;4.20;99.90;;;;;;5054348;28;20651;-60
2023/12/17 05:34:27;;;;;;;23.70;12.88;;;4.20;99.90;;;;;;5065128;28;20756;-60
2023/12/17 05:36:55;;;;;;;24.40;13.40;;;4.20;99.90;;;;;;5054182;28;20210;-60
2023/12/17 05:39:23;;;;;;;22.27;12.73;;;4.10;99.90;;;;;;5053862;28;20209;-59
2023/12/17 05:41:51;;;;;;;25.02;13.52;;;4.10;99.90;;;;;;5053052;28;20247;-60
2023/12/17 05:44:18;;;;;;;28.00;12.75;;;4.10;99.90;;;;;;5054245;28;20232;-59
2023/12/17 05:46:46;;;;;;;21.27;13.00;;;4.20;99.90;;;;;;5054104;28;20438;-60
2023/12/17 05:49:14;;;;;;;22.65;12.05;;;4.20;99.90;;;;;;5054019;28;20229;-60
2023/12/17 05:51:44;;;;;;;21.50;13.55;;;4.20;99.90;;;;;;5053661;28;20224;-60
2023/12/17 05:54:12;;;;;;;24.70;12.73;;;4.20;99.90;;;;;;5053804;28;20632;-60
2023/12/17 05:56:41;;;;;;;20.85;13.20;;;4.20;99.90;;;;;;5053157;28;20293;-59
2023/12/17 05:59:08;;;;;;;27.90;13.80;;;4.20;99.90;;;;;;5053147;28;20206;-60
2023/12/17 06:01:36;;;;;;;22.63;12.77;;;4.30;99.90;;;;;;5053562;28;20225;-60
2023/12/17 06:04:04;;;;;;;24.10;12.57;;;4.30;99.90;;;;;;5053500;28;20776;-60
2023/12/17 06:06:32;;;;;;;22.05;11.95;;;4.30;99.90;;;;;;5045320;28;20580;-60
2023/12/17 06:09:02;;;;;;;23.63;12.07;;;4.30;99.90;;;;;;5053835;28;20210;-60
2023/12/17 06:11:30;;;;;;;22.10;11.98;;;4.30;99.90;;;;;;5052876;28;20335;-59
2023/12/17 06:13:58;;;;;;;22.65;11.88;;;4.30;99.90;;;;;;5053309;28;20307;-59
2023/12/17 06:16:26;;;;;;;25.27;11.90;;;4.30;99.90;;;;;;5053072;28;20640;-59
2023/12/17 06:18:54;;;;;;;22.13;12.65;;;4.30;99.90;;;;;;5052441;28;20622;-59
2023/12/17 06:21:23;;;;;;;24.25;12.25;;;4.30;99.90;;;;;;5053639;28;20220;-59
2023/12/17 06:23:51;;;;;;;19.17;12.23;;;4.30;99.90;;;;;;5053153;28;20295;-60
2023/12/17 06:26:20;;;;;;;17.27;11.43;;;4.30;99.90;;;;;;5046161;28;20217;-60
2023/12/17 06:28:48;;;;;;;26.73;12.35;;;4.30;99.90;;;;;;5053068;28;20206;-60
2023/12/17 06:31:16;;;;;;;22.30;12.65;;;4.20;99.90;;;;;;5053162;28;20647;-60
2023/12/17 06:33:44;;;;;;;22.13;11.85;;;4.20;99.90;;;;;;5044782;28;20222;-60
2023/12/17 06:36:12;;;;;;;27.30;13.50;;;4.30;99.90;;;;;;5053391;28;20208;-60
2023/12/17 06:38:40;;;;;;;22.20;12.32;;;4.20;99.90;;;;;;5053047;28;20217;-60
2023/12/17 06:41:08;;;;;;;28.55;13.40;;;4.30;99.90;;;;;;5051683;28;20202;-60
2023/12/17 06:43:38;;;;;;;25.13;13.05;;;4.30;99.90;;;;;;5052581;28;20217;-59
2023/12/17 06:46:06;;;;;;;22.10;11.98;;;4.30;99.90;;;;;;5048632;28;20241;-60
2023/12/17 06:48:35;;;;;;;25.08;12.48;;;4.30;99.90;;;;;;5045091;28;20202;-60
2023/12/17 06:51:03;;;;;;;19.23;12.40;;;4.30;99.90;;;;;;5052992;28;20276;-60
2023/12/17 06:53:31;;;;;;;30.85;13.05;;;4.30;99.90;;;;;;5052625;28;20233;-60
2023/12/17 06:55:59;;;;;;;25.95;13.10;;;4.30;99.90;;;;;;5051430;28;20205;-60
2023/12/17 06:58:27;;;;;;;22.90;12.15;;;4.30;99.90;;;;;;5049262;28;20660;-60
2023/12/17 07:00:56;;;;;;;26.15;13.10;;;4.30;99.90;;;;;;5052768;28;20210;-63
2023/12/17 07:03:24;;;;;;;33.15;13.02;;;4.30;99.90;;;;;;5052418;28;20202;-62
2023/12/17 07:05:52;;;;;;;29.83;13.73;;;4.40;99.90;;;;;;5046568;28;20421;-63
2023/12/17 07:08:20;;;;;;;40.35;15.05;;;4.40;99.90;;;;;;5050551;28;20289;-63
2023/12/17 07:10:48;;;;;;;35.47;14.48;;;4.40;99.90;;;;;;5051090;28;20624;-62
2023/12/17 07:13:16;;;;;;;34.25;16.15;;;4.30;99.90;;;;;;5049750;28;20271;-62
2023/12/17 07:15:44;;;;;;;48.95;16.83;;;4.30;99.90;;;;;;5049933;28;20208;-63
2023/12/17 07:18:13;;;;;;;44.22;16.55;;;4.30;99.90;;;;;;5044703;28;20206;-63
2023/12/17 07:20:41;;;;;;;38.42;15.48;;;4.30;99.90;;;;;;5047216;28;20214;-62
2023/12/17 07:23:09;;;;;;;47.72;16.20;;;4.30;99.90;;;;;;5044765;28;20199;-63
2023/12/17 07:25:37;;;;;;;43.22;16.38;;;4.40;99.90;;;;;;5051410;28;20774;-62
2023/12/17 07:28:05;;;;;;;38.78;15.60;;;4.40;99.90;;;;;;5050456;28;20694;-62
2023/12/17 07:30:34;;;;;;;45.00;16.80;;;4.40;99.90;;;;;;5059524;28;20263;-63
2023/12/17 07:33:03;;;;;;;45.08;17.67;;;4.40;99.90;;;;;;5050855;28;20226;-63
2023/12/17 07:35:32;;;;;;;43.47;17.13;;;4.40;99.90;;;;;;5047966;28;20227;-63
2023/12/17 07:38:00;;;;;;;40.28;18.67;;;4.50;99.90;;;;;;5047789;28;20252;-63
2023/12/17 07:40:28;;;;;;;40.20;18.17;;;4.50;99.90;;;;;;5051262;28;20597;-63
2023/12/17 07:42:56;;;;;;;40.90;17.20;;;4.50;99.90;;;;;;5057816;28;20225;-63
2023/12/17 07:45:24;;;;;;;41.17;17.42;;;4.50;99.90;;;;;;5071719;28;20221;-63
2023/12/17 07:47:52;;;;;;;40.55;16.83;;;4.50;99.90;;;;;;5071686;28;20213;-62
2023/12/17 07:50:20;;;;;;;28.27;10.55;;;4.50;99.90;;;;;;5069653;28;20207;-61
2023/12/17 07:52:49;;;;;;;40.40;14.52;;;5.70;99.90;;;;;;5051651;28;20277;-61
2023/12/17 07:55:17;;;;;;;31.25;12.23;;;7.30;99.90;;;;;;5050338;28;20228;-62
2023/12/17 07:57:45;;;;;;;29.15;13.60;;;8.60;99.90;;;;;;5039644;28;20197;-63
2023/12/17 08:00:13;;;;;;;33.22;13.60;;;9.30;99.90;;;;;;5051812;28;20279;-60
2023/12/17 08:02:41;;;;;;;26.85;13.82;;;8.80;99.90;;;;;;5051665;28;20311;-63
2023/12/17 08:05:09;;;;;;;29.92;14.15;;;8.00;99.90;;;;;;5047423;28;20261;-63
2023/12/17 08:07:37;;;;;;;25.85;14.23;;;7.40;99.90;;;;;;5050447;28;20667;-63
2023/12/17 08:10:08;;;;;;;34.45;15.57;;;6.80;99.90;;;;;;5051720;28;20206;-62
2023/12/17 08:12:36;;;;;;;30.83;15.02;;;6.30;99.90;;;;;;5050774;28;20237;-61
2023/12/17 08:15:05;;;;;;;32.22;14.65;;;6.00;99.90;;;;;;5051058;28;20226;-62
2023/12/17 08:17:33;;;;;;;34.53;14.65;;;5.70;99.90;;;;;;5044531;28;20214;-62
2023/12/17 08:20:01;;;;;;;33.13;16.00;;;5.50;99.90;;;;;;5045442;28;20203;-63
2023/12/17 08:22:29;;;;;;;32.30;15.02;;;5.40;99.90;;;;;;5059867;28;20263;-62
2023/12/17 08:24:57;;;;;;;38.95;16.50;;;5.30;99.90;;;;;;5077224;22;20252;-65
2023/12/17 08:27:26;;;;;;;31.27;15.52;;;5.20;99.90;;;;;;5042528;28;20248;-65
2023/12/17 08:29:54;;;;;;;31.70;15.32;;;5.10;99.90;;;;;;5051418;28;20205;-65
2023/12/17 08:32:23;;;;;;;27.20;15.00;;;5.00;99.90;;;;;;5051305;28;20202;-65
2023/12/17 08:34:51;;;;;;;31.30;15.30;;;5.00;99.90;;;;;;5042281;28;20609;-65
2023/12/17 08:37:18;;;;;;;28.63;15.20;;;5.00;99.90;;;;;;5030233;28;20759;-65
2023/12/17 08:39:46;;;;;;;27.85;14.32;;;5.00;99.90;;;;;;5025809;28;20546;-65
2023/12/17 08:42:14;;;;;;;24.60;12.77;;;5.00;99.90;;;;;;5030986;28;20264;-64
2023/12/17 08:44:44;;;;;;;21.50;9.63;;;5.00;99.90;;;;;;5030507;28;20219;-65
2023/12/17 08:47:12;;;;;;;19.52;9.48;;;4.90;99.90;;;;;;5031074;28;20202;-65
2023/12/17 08:49:40;;;;;;;20.88;9.35;;;4.80;99.90;;;;;;5031492;28;20260;-65
2023/12/17 08:52:08;;;;;;;17.73;8.95;;;4.70;99.90;;;;;;5031283;28;20260;-65
2023/12/17 08:54:36;;;;;;;20.05;9.98;;;4.60;99.90;;;;;;5028675;28;20296;-65
2023/12/17 08:57:04;;;;;;;20.42;10.15;;;4.60;99.90;;;;;;5027914;28;20207;-65
2023/12/17 08:59:32;;;;;;;26.75;10.50;;;4.60;99.90;;;;;;5033459;28;20212;-65
2023/12/17 09:02:01;;;;;;;21.00;10.43;;;4.60;99.90;;;;;;5035191;28;20296;-65
2023/12/17 09:04:29;;;;;;;17.33;10.40;;;4.50;99.90;;;;;;5031824;28;20253;-65
2023/12/17 09:06:57;;;;;;;23.35;10.18;;;4.50;99.90;;;;;;5030502;28;20568;-65
2023/12/17 09:09:24;;;;;;;19.90;10.80;;;4.60;99.90;;;;;;5026869;28;20211;-65
2023/12/17 09:11:52;;;;;;;18.17;9.77;;;4.60;99.90;;;;;;5023803;28;20681;-65
2023/12/17 09:14:20;;;;;;;20.13;9.73;;;4.60;99.90;;;;;;5031199;28;20645;-66
2023/12/17 09:16:48;;;;;;;17.83;10.45;;;4.60;99.90;;;;;;5034237;28;20261;-66
2023/12/17 09:19:17;;;;;;;19.48;10.68;;;4.60;99.90;;;;;;5032286;28;20676;-64
2023/12/17 09:21:45;;;;;;;21.73;10.80;;;4.50;99.90;;;;;;5031013;28;20206;-66
2023/12/17 09:24:13;;;;;;;18.65;10.88;;;4.50;99.90;;;;;;5030972;28;20219;-65
2023/12/17 09:26:41;;;;;;;19.92;10.88;;;4.50;99.90;;;;;;5033680;28;20222;-64
2023/12/17 09:29:09;;;;;;;19.42;10.82;;;4.50;99.90;;;;;;5026594;28;20628;-65
2023/12/17 09:31:39;;;;;;;19.33;10.70;;;4.50;99.90;;;;;;5034422;28;20207;-65
2023/12/17 09:34:07;;;;;;;20.25;10.18;;;4.40;99.90;;;;;;5033442;28;20308;-65
2023/12/17 09:36:37;;;;;;;21.85;11.55;;;4.50;99.90;;;;;;5033882;28;20210;-65
2023/12/17 09:39:05;;;;;;;17.23;10.05;;;4.40;99.90;;;;;;5033856;28;20619;-65
2023/12/17 09:41:33;;;;;;;19.88;11.38;;;4.40;99.90;;;;;;5034341;28;20210;-65
2023/12/17 09:44:01;;;;;;;21.17;10.93;;;4.50;99.90;;;;;;5033316;28;20284;-64
2023/12/17 09:46:29;;;;;;;19.95;11.05;;;4.50;99.90;;;;;;5033592;28;20258;-65
2023/12/17 09:48:56;;;;;;;16.90;10.07;;;4.50;99.90;;;;;;5033686;28;20211;-65
2023/12/17 09:51:25;;;;;;;20.88;10.65;;;4.50;99.90;;;;;;5033836;28;20217;-65
2023/12/17 09:53:54;;;;;;;17.45;10.23;;;4.50;99.90;;;;;;5033266;28;20218;-65
2023/12/17 09:56:22;;;;;;;23.27;12.15;;;4.50;99.90;;;;;;5031170;28;20668;-65
2023/12/17 09:58:50;;;;;;;18.60;11.23;;;4.50;99.90;;;;;;5033760;28;20203;-65
2023/12/17 10:01:18;;;;;;;22.50;13.02;;;4.40;99.90;;;;;;5033974;28;20207;-65
2023/12/17 10:03:46;;;;;;;28.42;14.25;;;4.40;99.90;;;;;;5025624;28;20245;-68
2023/12/17 10:06:14;;;;;;;24.98;13.45;;;4.40;99.90;;;;;;5034117;28;20649;-65
2023/12/17 10:08:42;;;;;;;23.23;13.45;;;4.50;99.90;;;;;;5032279;28;20202;-65
2023/12/17 10:11:11;;;;;;;24.70;13.00;;;4.50;99.90;;;;;;5034073;28;20207;-65
2023/12/17 10:13:39;;;;;;;23.75;13.00;;;4.60;99.90;;;;;;5033465;28;20230;-64
2023/12/17 10:16:07;;;;;;;24.80;12.60;;;4.60;99.90;;;;;;5033492;28;20678;-64
2023/12/17 10:18:36;;;;;;;20.80;12.27;;;4.60;99.90;;;;;;5033406;28;20249;-64
2023/12/17 10:21:04;;;;;;;21.30;11.50;;;4.60;99.90;;;;;;5033933;28;20594;-64
2023/12/17 10:23:46;;;;;;;18.50;11.55;;;4.70;99.90;;;;;;5033560;28;20709;-64
2023/12/17 10:26:15;;;;;;;22.00;12.48;;;4.70;99.90;;;;;;5033454;28;20638;-64
2023/12/17 10:28:46;;;;;;;29.73;14.43;;;4.80;99.90;;;;;;5032925;28;20230;-64
2023/12/17 10:31:15;;;;;;;25.92;14.48;;;4.80;99.90;;;;;;5033674;28;20207;-64
2023/12/17 10:33:54;;;;;;;24.77;14.65;;;4.70;99.90;;;;;;5033112;28;20199;-65
2023/12/17 10:36:22;;;;;;;24.77;14.18;;;4.70;99.90;;;;;;5033218;28;20202;-64
2023/12/17 10:38:50;;;;;;;22.40;12.80;;;4.70;99.90;;;;;;5031375;28;20209;-64
2023/12/17 10:41:20;;;;;;;30.75;15.07;;;4.70;99.90;;;;;;5032079;28;20202;-64
2023/12/17 10:43:47;;;;;;;31.38;16.02;;;4.70;99.90;;;;;;5033026;28;20238;-64
2023/12/17 10:46:15;;;;;;;28.05;14.55;;;4.70;99.90;;;;;;5033346;28;20692;-65
2023/12/17 10:48:43;;;;;;;27.67;14.50;;;4.70;99.90;;;;;;5032878;28;20601;-64
2023/12/17 10:51:16;;;;;;;30.58;15.65;;;4.70;99.90;;;;;;5033266;28;20202;-64
2023/12/17 10:53:44;;;;;;;32.50;16.00;;;4.70;99.90;;;;;;5032453;28;20225;-64
2023/12/17 10:56:12;;;;;;;30.88;16.13;;;4.70;99.90;;;;;;5033376;28;20234;-64
2023/12/17 10:58:41;;;;;;;31.13;17.08;;;4.70;99.90;;;;;;5032645;28;20242;-64
2023/12/17 11:01:10;;;;;;;34.50;18.58;;;4.70;99.90;;;;;;5033162;28;20258;-64
2023/12/17 11:03:37;;;;;;;42.20;20.42;;;4.70;99.90;;;;;;5032647;28;20301;-64
2023/12/17 11:06:06;;;;;;;43.33;20.17;;;4.70;99.90;;;;;;5032513;28;20598;-64
2023/12/17 11:08:35;;;;;;;45.38;21.15;;;4.70;99.90;;;;;;5032501;28;20210;-64
2023/12/17 11:11:04;;;;;;;46.08;21.45;;;4.70;99.90;;;;;;5032982;28;20260;-64
2023/12/17 11:13:31;;;;;;;44.10;20.88;;;4.70;99.90;;;;;;5032509;28;20676;-64
2023/12/17 11:16:11;;;;;;;39.72;19.33;;;4.70;99.90;;;;;;5032399;28;20233;-64
2023/12/17 11:18:42;;;;;;;38.50;19.67;;;4.70;99.90;;;;;;5032134;28;20214;-65
2023/12/17 11:21:12;;;;;;;42.22;19.98;;;4.70;99.90;;;;;;5032393;28;20264;-65
2023/12/17 11:23:40;;;;;;;39.65;19.55;;;4.70;99.90;;;;;;5051025;28;20210;-65
2023/12/17 11:26:08;;;;;;;42.38;19.45;;;4.70;99.90;;;;;;5052252;28;20233;-65
2023/12/17 11:28:36;;;;;;;42.20;18.80;;;4.70;99.90;;;;;;5052237;28;20244;-65
2023/12/17 11:31:05;;;;;;;37.00;19.05;;;4.70;99.90;;;;;;5052493;28;20230;-65
2023/12/17 11:33:34;;;;;;;32.38;17.45;;;4.70;99.90;;;;;;5052220;28;20210;-65
2023/12/17 11:36:03;;;;;;;35.10;17.60;;;4.70;99.90;;;;;;5051910;28;20677;-65
2023/12/17 11:38:31;;;;;;;32.17;16.65;;;4.70;99.90;;;;;;5051843;28;20690;-65
2023/12/17 11:40:59;;;;;;;32.17;15.82;;;4.80;99.90;;;;;;5052293;28;20671;-65
2023/12/17 11:43:27;;;;;;;30.90;15.23;;;4.90;99.90;;;;;;5051750;28;20292;-65
2023/12/17 11:45:55;;;;;;;25.38;13.38;;;4.90;99.90;;;;;;5051764;28;20229;-65
2023/12/17 11:48:25;;;;;;;25.58;12.32;;;4.90;99.90;;;;;;5051945;28;20206;-65
2023/12/17 11:50:54;;;;;;;19.13;10.77;;;4.90;99.90;;;;;;5052167;28;20229;-65
2023/12/17 11:53:22;;;;;;;20.55;12.10;;;4.90;99.90;;;;;;5035947;28;20260;-65
2023/12/17 11:55:51;;;;;;;20.83;12.35;;;4.90;99.90;;;;;;5031510;28;20759;-65
2023/12/17 11:58:21;;;;;;;27.35;14.25;;;4.90;99.90;;;;;;5031136;28;20209;-66
2023/12/17 12:01:03;;;;;;;23.85;13.95;;;4.90;99.90;;;;;;5032005;28;20923;-65
2023/12/17 12:03:33;;;;;;;25.95;14.52;;;4.90;99.90;;;;;;5031948;28;20586;-63
2023/12/17 12:06:06;;;;;;;23.77;14.68;;;4.90;99.90;;;;;;5031925;28;20222;-65
2023/12/17 12:08:34;;;;;;;27.20;14.88;;;4.90;99.90;;;;;;5032263;28;20202;-64
2023/12/17 12:11:03;;;;;;;25.77;13.70;;;4.90;99.90;;;;;;5051627;28;20202;-65
2023/12/17 12:13:31;;;;;;;22.67;12.40;;;5.00;99.90;;;;;;5051676;28;20205;-64
2023/12/17 12:16:00;;;;;;;23.63;12.05;;;4.90;99.90;;;;;;5051548;28;20226;-64
2023/12/17 12:18:28;;;;;;;21.05;11.88;;;4.90;99.90;;;;;;5051418;28;20206;-64
2023/12/17 12:20:58;;;;;;;20.77;11.63;;;4.90;99.90;;;;;;5051693;28;20229;-64
2023/12/17 12:23:26;;;;;;;19.13;10.55;;;5.00;99.90;;;;;;5051176;28;20728;-64
2023/12/17 12:25:58;;;;;;;21.42;12.80;;;5.00;99.90;;;;;;5051116;28;20768;-64
2023/12/17 12:28:25;;;;;;;18.70;11.10;;;5.00;99.90;;;;;;5051370;28;20746;-64
2023/12/17 12:30:53;;;;;;;18.85;10.82;;;5.00;99.90;;;;;;5050967;28;20202;-64
2023/12/17 12:33:21;;;;;;;16.52;10.32;;;4.90;99.90;;;;;;5051240;28;20202;-63
2023/12/17 12:35:49;;;;;;;17.75;10.57;;;4.90;99.90;;;;;;5050920;28;20335;-63
2023/12/17 12:38:20;;;;;;;19.58;10.68;;;5.00;99.90;;;;;;5051070;28;20206;-64
2023/12/17 12:40:48;;;;;;;14.05;8.88;;;5.00;99.90;;;;;;5051303;28;20228;-64
2023/12/17 12:43:17;;;;;;;14.95;8.80;;;5.00;99.90;;;;;;5051347;28;20237;-64